WetterOnline ( https://www.wetteronline.de )

Wetter aktuell Schleswig

Aktuelles Wetter: Schleswig (48m)

6-stündlich | Neueste Meldungen
Ortszeit Temperatur Wetter
Mi, 30.11. 19:00 4.6° C bedeckt
Mi, 30.11. 13:00 5.1° C bedeckt
Mi, 30.11. 7:00 4.6° C bedeckt
Mi, 30.11. 1:00 4.1° C bewölkt
Di, 29.11. 19:00 4.2° C bedeckt
Di, 29.11. 13:00 4.6° C bedeckt
Di, 29.11. 7:00 4.0° C bedeckt
Di, 29.11. 1:00 4.2° C leichter Regen
Ortszeit Temperatur Wetter
Mi, 30.11. 21:30 4.6° C bedeckt
Mi, 30.11. 21:20 4.6° C Dunst
Mi, 30.11. 21:10 4.6° C Dunst
Mi, 30.11. 21:00 4.6° C Regen
Mi, 30.11. 20:50 4.6° C Dunst
Mi, 30.11. 20:40 4.6° C Sprühregen
Mi, 30.11. 20:30 4.5° C bedeckt
Mi, 30.11. 20:00 4.5° C Sprühregen
Mi, 30.11. 19:30 4.5° C bedeckt
Mi, 30.11. 19:00 4.6° C bedeckt
Mi, 30.11. 18:30 4.7° C bedeckt
Ortszeit Relative Feuchte Sichtweite
Mi, 30.11. 19:00 93% 3.7 km
Mi, 30.11. 13:00 87% 6 km
Mi, 30.11. 7:00 86% 8 km
Mi, 30.11. 1:00 87% 6 km
Di, 29.11. 19:00 89% 6 km
Di, 29.11. 13:00 88% 7 km
Di, 29.11. 7:00 91% 7 km
Di, 29.11. 1:00 95% 4.8 km
Ortszeit Relative Feuchte Sichtweite
Mi, 30.11. 21:30 96% 4.0 km
Mi, 30.11. 21:20 96% -
Mi, 30.11. 21:10 95% -
Mi, 30.11. 21:00 95% 4.5 km
Mi, 30.11. 20:50 95% -
Mi, 30.11. 20:40 96% -
Mi, 30.11. 20:30 96% 3.1 km
Mi, 30.11. 20:00 96% 2.2 km
Mi, 30.11. 19:30 94% 3.1 km
Mi, 30.11. 19:00 93% 3.7 km
Mi, 30.11. 18:30 91% 5.0 km
Ortszeit Niederschlagsmenge Niederschlagsart
Mi, 30.11. 19:00 0.1 l/m2 in 12 Std. Sprühregen
Mi, 30.11. 13:00 0.1 l/m2 in 6 Std. Regen
Mi, 30.11. 7:00 0.1 l/m2 in 12 Std. -
Mi, 30.11. 1:00 0.1 l/m2 in 6 Std. Sprühregen
Di, 29.11. 19:00 0.1 l/m2 in 12 Std. Sprühregen
Di, 29.11. 13:00 0.0 l/m2 in 6 Std. -
Di, 29.11. 7:00 3 l/m2 in 12 Std. Regen
Di, 29.11. 1:00 2 l/m2 in 6 Std. Regen
Ortszeit Niederschlagsmenge Niederschlagsart
Mi, 30.11. 21:30 0.0 l/m2 in 1 Std. -
Mi, 30.11. 21:20 keine Meldung -
Mi, 30.11. 21:10 keine Meldung -
Mi, 30.11. 21:00 <0.05 l/m2 in 1 Std. Sprühregen
Mi, 30.11. 20:50 keine Meldung -
Mi, 30.11. 20:40 keine Meldung -
Mi, 30.11. 20:30 <0.05 l/m2 in 1 Std. Schnee
Mi, 30.11. 20:00 <0.05 l/m2 in 1 Std. Sprühregen
Mi, 30.11. 19:30 <0.05 l/m2 in 1 Std. Schnee
Mi, 30.11. 19:00 <0.05 l/m2 in 1 Std. Sprühregen
Mi, 30.11. 18:30 0.0 l/m2 in 1 Std. -
Ortszeit Stärke Spitze Richtung
km/h Bft. km/h Grad Sektor
Mi, 30.11. 19:00 7 2 22 30° NO
Mi, 30.11. 13:00 13 3 20 60° NO
Mi, 30.11. 7:00 7 2 22 60° NO
Mi, 30.11. 1:00 7 2 20 80° O
Di, 29.11. 19:00 13 3 26 100° O
Di, 29.11. 13:00 13 3 24 90° O
Di, 29.11. 7:00 14 3 25 110° O
Di, 29.11. 1:00 13 3 26 100° O
Ortszeit Stärke Spitze Richtung
km/h Bft. km/h Grad Sektor
Mi, 30.11. 21:30 7 2 13 30° NO
Mi, 30.11. 21:20 7 2 - 30° NO
Mi, 30.11. 21:10 7 2 - 30° NO
Mi, 30.11. 21:00 9 2 17 40° NO
Mi, 30.11. 20:50 9 2 - 40° NO
Mi, 30.11. 20:40 9 2 - 40° NO
Mi, 30.11. 20:30 9 2 17 40° NO
Mi, 30.11. 20:00 7 2 14 30° NO
Mi, 30.11. 19:30 9 2 17 20° N
Mi, 30.11. 19:00 7 2 18 30° NO
Mi, 30.11. 18:30 7 2 14 30° NO
Ortszeit Untergrenze Bedeckung Gattung
total tief tief mittel hoch
Mi, 30.11. 19:00 210 m 8/8 8/8 - - -
Mi, 30.11. 13:00 330 m 8/8 8/8 - - -
Mi, 30.11. 7:00 1020 m 8/8 8/8 - - -
Mi, 30.11. 1:00 480 m 7/8 7/8 - - -
Di, 29.11. 19:00 300 m 8/8 8/8 - - -
Di, 29.11. 13:00 240 m 8/8 8/8 - - -
Di, 29.11. 7:00 270 m 8/8 8/8 - - -
Di, 29.11. 1:00 210 m 7/8 7/8 - - -
Ortszeit Bedeckungsgrad in Achtel und Wolkenuntergrenze
Mi, 30.11. 21:30 1(120m) 8(360m)
Mi, 30.11. 21:20 1(120m) 8(360m)
Mi, 30.11. 21:10 8
Mi, 30.11. 21:00 7(210m)
Mi, 30.11. 20:50 7(210m)
Mi, 30.11. 20:40 8
Mi, 30.11. 20:30 8(180m)
Mi, 30.11. 20:00 7(180m) 8(270m)
Mi, 30.11. 19:30 4(210m) 8(300m)
Mi, 30.11. 19:00 6(210m) 8(330m)
Mi, 30.11. 18:30 8(360m)
Ortszeit Luftdruck NN (hPa) Tendenz (hPa in 3 Std.)
Mi, 30.11. 19:00 1028 + 0,7
Mi, 30.11. 13:00 1026 + 0,2
Mi, 30.11. 7:00 1025 + 0,8
Mi, 30.11. 1:00 1024 + 0,7
Di, 29.11. 19:00 1022 + 1,4
Di, 29.11. 13:00 1020 + 0,8
Di, 29.11. 7:00 1018 + 1,2
Di, 29.11. 1:00 1016 + 0,4
Ortszeit Luftdruck NN (hPa) Tendenz (hPa in 3 Std.)
Mi, 30.11. 21:30 1028 + 0,7
Mi, 30.11. 21:20 1028 keine Meldung
Mi, 30.11. 21:10 1028 keine Meldung
Mi, 30.11. 21:00 1028 + 0,8
Mi, 30.11. 20:50 1028 keine Meldung
Mi, 30.11. 20:40 1028 keine Meldung
Mi, 30.11. 20:30 1028 + 0,9
Mi, 30.11. 20:00 1028 + 1,0
Mi, 30.11. 19:30 1028 + 0,9
Mi, 30.11. 19:00 1028 + 0,7
Mi, 30.11. 18:30 1027 + 0,7
Ortszeit Schneehöhe (cm)
Mi, 30.11. 19:00 0
Mi, 30.11. 13:00 0
Mi, 30.11. 7:00 0
Mi, 30.11. 1:00 0
Di, 29.11. 19:00 0
Di, 29.11. 13:00 0
Di, 29.11. 7:00 0
Di, 29.11. 1:00 0
Ortszeit Schneehöhe (cm)
Mi, 30.11. 21:30 0
Mi, 30.11. 21:20 0
Mi, 30.11. 21:10 0
Mi, 30.11. 21:00 0
Mi, 30.11. 20:50 0
Mi, 30.11. 20:40 0
Mi, 30.11. 20:30 0
Mi, 30.11. 20:00 0
Mi, 30.11. 19:30 0
Mi, 30.11. 19:00 0
Mi, 30.11. 18:30 0
Link zu dieser Seite / Seite empfehlen

Das Wetter in ...